createdAt,value
2023-02-11T00:00:06.190Z,16.10
2023-02-11T00:02:37.995Z,17.00
2023-02-11T00:05:10.627Z,16.10
2023-02-11T00:07:42.642Z,16.70
2023-02-11T00:10:14.600Z,16.00
2023-02-11T00:12:46.430Z,16.50
2023-02-11T00:15:18.213Z,15.40
2023-02-11T00:17:49.827Z,16.00
2023-02-11T00:20:21.707Z,16.30
2023-02-11T00:22:53.476Z,17.40
2023-02-11T00:25:25.228Z,16.70
2023-02-11T00:27:57.103Z,16.40
2023-02-11T00:30:29.032Z,15.50
2023-02-11T00:33:00.721Z,18.00
2023-02-11T00:35:32.368Z,18.90
2023-02-11T00:38:04.174Z,19.30
2023-02-11T00:40:35.902Z,20.40
2023-02-11T00:43:07.650Z,19.90
2023-02-11T00:45:39.222Z,19.30
2023-02-11T00:48:10.887Z,18.30
2023-02-11T00:50:42.586Z,18.80
2023-02-11T00:53:14.497Z,18.60
2023-02-11T00:55:46.246Z,18.80
2023-02-11T00:58:18.233Z,18.10
2023-02-11T01:00:50.459Z,16.90
2023-02-11T01:03:22.202Z,17.70
2023-02-11T01:05:54.049Z,16.50
2023-02-11T01:08:26.049Z,18.00
2023-02-11T01:11:03.091Z,16.80
2023-02-11T01:13:37.514Z,17.10
2023-02-11T01:16:11.827Z,16.40
2023-02-11T01:18:44.925Z,16.00
2023-02-11T01:21:17.071Z,16.50
2023-02-11T01:23:48.864Z,16.10
2023-02-11T01:26:20.627Z,17.10
2023-02-11T01:28:52.537Z,16.60
2023-02-11T01:31:24.268Z,17.20
2023-02-11T01:33:56.080Z,17.40
2023-02-11T01:36:27.685Z,15.50
2023-02-11T01:38:59.322Z,14.70
2023-02-11T01:41:30.948Z,15.20
2023-02-11T01:44:15.819Z,14.90
2023-02-11T01:46:47.679Z,15.90
2023-02-11T01:49:27.233Z,14.80
2023-02-11T01:52:03.793Z,14.60
2023-02-11T01:54:58.155Z,14.80
2023-02-11T01:57:35.087Z,14.70
2023-02-11T02:00:15.252Z,14.40
2023-02-11T02:02:58.918Z,15.60
2023-02-11T02:05:36.910Z,14.90
2023-02-11T02:08:16.498Z,15.60
2023-02-11T02:10:53.594Z,14.80
2023-02-11T02:13:26.073Z,15.00
2023-02-11T02:15:59.934Z,14.60
2023-02-11T02:18:45.471Z,15.60
2023-02-11T02:21:54.274Z,14.30
2023-02-11T02:24:51.668Z,15.40
2023-02-11T02:27:39.503Z,15.80
2023-02-11T02:30:49.368Z,14.40
2023-02-11T02:33:40.195Z,16.40
2023-02-11T02:36:21.430Z,15.90
2023-02-11T02:38:59.743Z,16.20
2023-02-11T02:41:35.064Z,16.50
2023-02-11T02:44:07.744Z,15.20
2023-02-11T02:46:40.098Z,17.20
2023-02-11T02:49:15.551Z,17.00
2023-02-11T02:52:14.275Z,16.30
2023-02-11T02:55:09.434Z,16.90
2023-02-11T02:57:54.274Z,18.00
2023-02-11T03:00:35.271Z,18.10
2023-02-11T03:03:19.501Z,17.00
2023-02-11T03:05:59.991Z,17.70
2023-02-11T03:08:40.121Z,19.10
2023-02-11T03:11:13.672Z,18.40
2023-02-11T03:13:48.038Z,18.20
2023-02-11T03:16:24.277Z,18.70
2023-02-11T03:19:02.030Z,19.10
2023-02-11T03:21:38.095Z,18.20
2023-02-11T03:24:14.881Z,18.10
2023-02-11T03:26:51.590Z,19.00
2023-02-11T03:29:32.794Z,19.00
2023-02-11T03:32:12.731Z,18.10
2023-02-11T03:34:49.536Z,18.30
2023-02-11T03:37:27.639Z,17.40
2023-02-11T03:40:04.979Z,18.50
2023-02-11T03:42:43.183Z,17.60
2023-02-11T03:45:18.765Z,18.60
2023-02-11T03:47:54.915Z,18.80
2023-02-11T03:50:28.090Z,16.70
2023-02-11T03:53:02.241Z,20.80
2023-02-11T03:55:38.591Z,18.20
2023-02-11T03:58:10.401Z,19.80
2023-02-11T04:00:44.212Z,19.90
2023-02-11T04:03:16.525Z,20.00
2023-02-11T04:05:48.562Z,19.10
2023-02-11T04:08:20.809Z,20.50
2023-02-11T04:10:52.421Z,18.00
2023-02-11T04:13:24.052Z,17.40
2023-02-11T04:15:55.816Z,18.90
2023-02-11T04:18:27.408Z,17.60
2023-02-11T04:20:59.095Z,17.50
2023-02-11T04:23:30.680Z,17.90
2023-02-11T04:26:02.490Z,19.50
2023-02-11T04:28:35.298Z,17.70
2023-02-11T04:31:07.176Z,18.00
2023-02-11T04:33:39.105Z,18.80
2023-02-11T04:36:18.565Z,18.80
2023-02-11T04:38:55.493Z,18.70
2023-02-11T04:41:34.560Z,19.40
2023-02-11T04:44:06.681Z,19.20
2023-02-11T04:46:38.394Z,18.00
2023-02-11T04:49:10.137Z,17.30
2023-02-11T04:51:41.722Z,17.70
2023-02-11T04:54:13.428Z,18.10
2023-02-11T04:56:45.063Z,18.10
2023-02-11T04:59:16.672Z,18.20
2023-02-11T05:01:48.327Z,19.70
2023-02-11T05:04:20.214Z,18.00
2023-02-11T05:06:52.230Z,18.30
2023-02-11T05:09:23.873Z,18.20
2023-02-11T05:11:55.497Z,17.90
2023-02-11T05:14:27.179Z,18.80
2023-02-11T05:16:58.880Z,17.70
2023-02-11T05:19:31.566Z,19.70
2023-02-11T05:22:03.891Z,19.10
2023-02-11T05:24:36.458Z,20.20
2023-02-11T05:27:08.206Z,19.60
2023-02-11T05:29:40.344Z,20.30
2023-02-11T05:32:12.667Z,18.90
2023-02-11T05:34:44.336Z,19.10
2023-02-11T05:37:16.124Z,19.70
2023-02-11T05:39:48.036Z,20.90
2023-02-11T05:42:19.799Z,19.40
2023-02-11T05:44:51.546Z,19.90
2023-02-11T05:47:23.194Z,19.30
2023-02-11T05:49:55.120Z,20.20
2023-02-11T05:52:27.126Z,20.40
2023-02-11T05:54:58.935Z,20.40
2023-02-11T05:57:30.677Z,21.20
2023-02-11T06:00:02.447Z,18.70
2023-02-11T06:02:34.141Z,21.10
2023-02-11T06:05:05.958Z,20.30
2023-02-11T06:07:37.535Z,20.10
2023-02-11T06:10:10.993Z,21.10
2023-02-11T06:12:42.679Z,22.40
2023-02-11T06:15:14.679Z,20.80
2023-02-11T06:17:46.439Z,22.50
2023-02-11T06:20:18.427Z,22.30
2023-02-11T06:22:50.142Z,20.80
2023-02-11T06:25:22.041Z,22.40
2023-02-11T06:27:53.795Z,20.30
2023-02-11T06:30:25.524Z,22.10
2023-02-11T06:32:57.224Z,21.50
2023-02-11T06:35:28.834Z,21.60
2023-02-11T06:38:00.468Z,22.90
2023-02-11T06:40:32.157Z,22.90
2023-02-11T06:43:03.972Z,24.20
2023-02-11T06:45:35.694Z,22.00
2023-02-11T06:48:07.655Z,22.00
2023-02-11T06:50:39.916Z,21.30
2023-02-11T06:53:11.642Z,23.00
2023-02-11T06:55:43.447Z,22.20
2023-02-11T06:58:15.434Z,22.40
2023-02-11T07:00:47.261Z,24.10
2023-02-11T07:03:19.008Z,24.30
2023-02-11T07:05:50.948Z,23.40
2023-02-11T07:08:22.799Z,24.90
2023-02-11T07:10:54.689Z,24.30
2023-02-11T07:13:26.254Z,22.70
2023-02-11T07:15:58.040Z,25.40
2023-02-11T07:18:29.727Z,24.60
2023-02-11T07:21:01.704Z,23.50
2023-02-11T07:23:33.737Z,25.90
2023-02-11T07:26:08.775Z,25.60
2023-02-11T07:28:41.651Z,24.40
2023-02-11T07:31:15.114Z,24.60
2023-02-11T07:33:47.542Z,24.50
2023-02-11T07:36:19.752Z,24.90
2023-02-11T07:38:51.840Z,22.80
2023-02-11T07:41:25.412Z,23.90
2023-02-11T07:43:57.449Z,24.20
2023-02-11T07:46:30.412Z,25.10
2023-02-11T07:49:02.164Z,23.70
2023-02-11T07:51:34.277Z,24.60
2023-02-11T07:54:06.361Z,24.30
2023-02-11T07:56:38.242Z,23.30
2023-02-11T07:59:10.166Z,21.80
2023-02-11T08:01:41.956Z,24.60
2023-02-11T08:04:13.528Z,24.30
2023-02-11T08:06:46.403Z,24.90
2023-02-11T08:09:19.516Z,25.50
2023-02-11T08:11:51.330Z,25.80
2023-02-11T08:14:23.025Z,28.70
2023-02-11T08:16:54.990Z,24.90
2023-02-11T08:19:27.805Z,24.00
2023-02-11T08:22:01.739Z,26.90
2023-02-11T08:24:33.505Z,27.70
2023-02-11T08:27:05.337Z,29.50
2023-02-11T08:29:37.087Z,27.00
2023-02-11T08:32:08.790Z,29.00
2023-02-11T08:34:40.654Z,29.00
2023-02-11T08:37:12.511Z,27.70
2023-02-11T08:39:44.269Z,27.40
2023-02-11T08:42:16.144Z,25.70
2023-02-11T08:44:48.255Z,26.70
2023-02-11T08:47:20.061Z,28.10
2023-02-11T08:49:51.765Z,28.40
2023-02-11T08:52:23.612Z,26.60
2023-02-11T08:54:55.235Z,27.90
2023-02-11T08:57:27.106Z,27.10
2023-02-11T08:59:58.889Z,27.10
2023-02-11T09:02:30.875Z,26.20
2023-02-11T09:05:02.677Z,26.80
2023-02-11T09:07:34.472Z,27.40
2023-02-11T09:10:06.719Z,24.20
2023-02-11T09:12:38.547Z,26.00
2023-02-11T09:15:11.636Z,26.10
2023-02-11T09:17:43.542Z,25.90
2023-02-11T09:20:15.953Z,23.90
2023-02-11T09:22:48.147Z,26.00
2023-02-11T09:25:20.264Z,26.00
2023-02-11T09:27:54.132Z,25.50
2023-02-11T09:30:26.595Z,27.90
2023-02-11T09:32:58.345Z,25.50
2023-02-11T09:35:30.126Z,26.10
2023-02-11T09:38:01.854Z,26.00
2023-02-11T09:40:34.060Z,25.40
2023-02-11T09:43:10.006Z,26.60
2023-02-11T09:45:41.947Z,25.50
2023-02-11T09:48:20.160Z,28.60
2023-02-11T09:50:56.150Z,25.90
2023-02-11T09:53:31.163Z,25.50
2023-02-11T09:56:05.379Z,25.40
2023-02-11T09:58:40.137Z,27.10
2023-02-11T10:04:01.335Z,28.40
2023-02-11T10:06:47.510Z,29.50
2023-02-11T10:09:49.312Z,30.70
2023-02-11T10:12:33.278Z,30.10
2023-02-11T10:15:19.558Z,30.70
2023-02-11T10:18:03.559Z,30.60
2023-02-11T10:20:39.336Z,29.30
2023-02-11T10:23:22.080Z,29.10
2023-02-11T10:25:56.687Z,30.50
2023-02-11T10:28:34.307Z,29.60
2023-02-11T10:31:08.788Z,29.90
2023-02-11T10:33:46.363Z,31.40
2023-02-11T10:36:20.353Z,30.00
2023-02-11T10:38:51.991Z,25.70
2023-02-11T10:41:28.011Z,30.00
2023-02-11T10:44:00.701Z,30.00
2023-02-11T10:46:40.551Z,30.40
2023-02-11T10:49:32.744Z,32.30
2023-02-11T10:52:22.639Z,31.00
2023-02-11T10:55:03.748Z,33.10
2023-02-11T10:57:39.032Z,31.20
2023-02-11T11:00:25.442Z,30.20
2023-02-11T11:03:01.053Z,31.40
2023-02-11T11:05:37.118Z,30.20
2023-02-11T11:08:11.251Z,31.90
2023-02-11T11:10:45.354Z,29.90
2023-02-11T11:13:35.913Z,30.00
2023-02-11T11:16:22.487Z,34.00
2023-02-11T11:18:56.276Z,29.20
2023-02-11T11:21:32.636Z,31.30
2023-02-11T11:24:06.518Z,31.20
2023-02-11T11:26:46.727Z,31.40
2023-02-11T11:29:21.328Z,29.90
2023-02-11T11:31:57.230Z,30.40
2023-02-11T11:34:33.907Z,29.90
2023-02-11T11:37:15.304Z,29.20
2023-02-11T11:39:55.672Z,30.60
2023-02-11T11:42:30.845Z,35.20
2023-02-11T11:45:04.993Z,32.50
2023-02-11T11:47:47.052Z,32.10
2023-02-11T11:50:29.674Z,35.00
2023-02-11T11:53:12.045Z,33.30
2023-02-11T11:55:47.424Z,33.70
2023-02-11T11:58:22.773Z,34.90
2023-02-11T12:01:03.844Z,34.30
2023-02-11T12:04:27.999Z,32.70
2023-02-11T12:07:13.813Z,33.30
2023-02-11T12:09:56.199Z,33.40
2023-02-11T12:12:46.841Z,31.30
2023-02-11T12:15:33.435Z,32.80
2023-02-11T12:18:24.107Z,34.40
2023-02-11T12:21:11.957Z,35.60
2023-02-11T12:23:57.442Z,37.00
2023-02-11T12:26:36.848Z,33.40
2023-02-11T12:29:17.392Z,36.80
2023-02-11T12:32:06.251Z,35.50
2023-02-11T12:34:48.658Z,35.80
2023-02-11T12:37:36.970Z,33.40
2023-02-11T12:40:20.225Z,32.60
2023-02-11T12:43:19.142Z,33.70
2023-02-11T12:46:11.801Z,34.70
2023-02-11T12:48:58.783Z,32.80
2023-02-11T12:51:42.275Z,32.50
2023-02-11T12:54:26.508Z,34.90
2023-02-11T12:57:05.134Z,33.00
2023-02-11T12:59:55.737Z,34.30
2023-02-11T13:02:36.742Z,33.90
2023-02-11T13:05:29.055Z,33.20
2023-02-11T13:08:08.070Z,32.10
2023-02-11T13:10:43.354Z,33.50
2023-02-11T13:13:24.216Z,34.30
2023-02-11T13:16:03.745Z,32.70
2023-02-11T13:18:52.094Z,31.10
2023-02-11T13:21:48.174Z,32.50
2023-02-11T13:24:33.710Z,33.50
2023-02-11T13:27:18.282Z,29.30
2023-02-11T13:30:21.690Z,36.90
2023-02-11T13:33:33.827Z,35.10
2023-02-11T13:36:27.068Z,35.20
2023-02-11T13:39:04.197Z,33.80
2023-02-11T13:41:42.244Z,32.30
2023-02-11T13:44:35.562Z,33.80
2023-02-11T13:47:09.633Z,33.40
2023-02-11T13:49:55.494Z,31.20
2023-02-11T13:52:31.346Z,31.60
2023-02-11T13:55:10.930Z,33.30
2023-02-11T13:57:45.898Z,33.80
2023-02-11T14:00:52.472Z,33.50
2023-02-11T14:04:20.278Z,34.90
2023-02-11T14:07:40.251Z,31.80
2023-02-11T14:10:53.661Z,36.60
2023-02-11T14:13:29.390Z,32.50
2023-02-11T14:16:25.268Z,34.20
2023-02-11T14:19:06.656Z,33.20
2023-02-11T14:24:44.100Z,33.70
2023-02-11T14:27:22.353Z,31.80
2023-02-11T14:30:13.744Z,33.80
2023-02-11T14:33:03.258Z,31.10
2023-02-11T14:35:47.456Z,33.70
2023-02-11T14:38:29.096Z,32.20
2023-02-11T14:41:08.601Z,32.20
2023-02-11T14:43:48.370Z,35.50
2023-02-11T14:46:23.233Z,32.10
2023-02-11T14:51:32.045Z,32.50
2023-02-11T14:54:16.577Z,33.40
2023-02-11T14:56:49.858Z,30.30
2023-02-11T14:59:24.217Z,34.00
2023-02-11T15:01:57.362Z,30.20
2023-02-11T15:04:32.731Z,28.30
2023-02-11T15:07:12.914Z,28.90
2023-02-11T15:09:49.043Z,27.70
2023-02-11T15:12:27.204Z,29.10
2023-02-11T15:15:03.320Z,30.60
2023-02-11T15:17:40.006Z,28.00
2023-02-11T15:20:24.563Z,25.10
2023-02-11T15:23:01.960Z,27.20
2023-02-11T15:25:36.765Z,28.50
2023-02-11T15:30:45.684Z,26.70
2023-02-11T15:33:26.890Z,27.40
2023-02-11T15:36:00.944Z,26.70
2023-02-11T15:38:34.767Z,25.40
2023-02-11T15:41:09.040Z,29.10
2023-02-11T15:43:52.185Z,27.60
2023-02-11T15:46:27.010Z,24.10
2023-02-11T15:51:36.233Z,25.20
2023-02-11T15:54:17.413Z,25.30
2023-02-11T15:56:57.328Z,24.80
2023-02-11T15:59:34.432Z,26.50
2023-02-11T16:02:19.020Z,25.60
2023-02-11T16:04:58.404Z,21.10
2023-02-11T16:07:53.271Z,22.10
2023-02-11T16:10:30.627Z,23.50
2023-02-11T16:13:23.136Z,23.40
2023-02-11T16:16:00.025Z,23.90
2023-02-11T16:19:02.000Z,24.20
2023-02-11T16:21:39.721Z,24.90
2023-02-11T16:24:28.874Z,26.00
2023-02-11T16:27:05.111Z,22.90
2023-02-11T16:29:42.857Z,26.40
2023-02-11T16:32:21.709Z,27.50
2023-02-11T16:34:56.034Z,22.70
2023-02-11T16:37:30.726Z,22.70
2023-02-11T16:40:03.642Z,22.60
2023-02-11T16:42:38.501Z,21.90
2023-02-11T16:45:13.589Z,19.80
2023-02-11T16:47:50.911Z,22.80
2023-02-11T16:50:28.176Z,21.20
2023-02-11T16:53:04.159Z,24.10
2023-02-11T16:55:42.884Z,19.40
2023-02-11T16:58:15.501Z,19.00
2023-02-11T17:00:51.438Z,20.90
2023-02-11T17:03:30.190Z,22.20
2023-02-11T17:06:05.497Z,26.90
2023-02-11T17:08:41.421Z,25.70
2023-02-11T17:11:18.942Z,22.50
2023-02-11T17:13:54.093Z,23.80
2023-02-11T17:16:31.217Z,21.60
2023-02-11T17:19:06.900Z,23.00
2023-02-11T17:21:43.764Z,22.00
2023-02-11T17:24:18.958Z,22.40
2023-02-11T17:26:53.444Z,25.60
2023-02-11T17:29:29.980Z,23.30
2023-02-11T17:32:03.965Z,20.00
2023-02-11T17:34:38.495Z,22.30
2023-02-11T17:37:14.698Z,26.40
2023-02-11T17:39:49.389Z,20.20
2023-02-11T17:42:24.190Z,19.60
2023-02-11T17:47:30.942Z,20.00
2023-02-11T17:50:06.040Z,22.30
2023-02-11T17:52:39.007Z,20.50
2023-02-11T17:55:13.968Z,19.60
2023-02-11T17:57:50.331Z,21.90
2023-02-11T18:00:26.936Z,20.00
2023-02-11T18:03:03.807Z,20.50
2023-02-11T18:05:42.736Z,18.20
2023-02-11T18:08:20.438Z,19.70
2023-02-11T18:10:54.303Z,23.90
2023-02-11T18:13:29.333Z,23.20
2023-02-11T18:16:08.417Z,18.10
2023-02-11T18:18:41.450Z,19.40
2023-02-11T18:21:19.106Z,22.80
2023-02-11T18:23:54.695Z,19.00
2023-02-11T18:26:31.705Z,16.40
2023-02-11T18:29:09.425Z,18.40
2023-02-11T18:31:43.958Z,18.10
2023-02-11T18:34:18.700Z,18.40
2023-02-11T18:36:55.176Z,17.40
2023-02-11T18:39:30.039Z,17.50
2023-02-11T18:44:42.803Z,15.50
2023-02-11T18:47:18.817Z,15.70
2023-02-11T18:49:53.901Z,16.90
2023-02-11T18:52:41.025Z,16.10
2023-02-11T18:55:18.325Z,17.60
2023-02-11T18:58:00.628Z,16.20
2023-02-11T19:00:35.639Z,17.30
2023-02-11T19:03:10.259Z,17.10
2023-02-11T19:05:48.352Z,16.90
2023-02-11T19:08:21.896Z,18.10
2023-02-11T19:10:59.703Z,18.00
2023-02-11T19:13:37.621Z,18.20
2023-02-11T19:16:20.431Z,19.10
2023-02-11T19:18:56.532Z,21.70
2023-02-11T19:21:34.455Z,19.80
2023-02-11T19:24:10.598Z,19.50
2023-02-11T19:26:44.740Z,17.90
2023-02-11T19:29:19.893Z,18.20
2023-02-11T19:31:58.247Z,19.40
2023-02-11T19:34:31.299Z,18.50
2023-02-11T19:37:06.272Z,18.50
2023-02-11T19:39:39.856Z,19.00
2023-02-11T19:42:13.250Z,18.20
2023-02-11T19:44:47.183Z,18.70
2023-02-11T19:47:28.690Z,19.20
2023-02-11T19:50:05.491Z,17.10
2023-02-11T19:52:43.953Z,19.70
2023-02-11T19:55:18.593Z,19.80
2023-02-11T19:57:54.288Z,18.50
2023-02-11T20:03:01.295Z,18.20
2023-02-11T20:05:35.952Z,20.30
2023-02-11T20:08:09.884Z,18.20
2023-02-11T20:10:44.924Z,19.00
2023-02-11T20:15:55.185Z,20.30
2023-02-11T20:18:32.030Z,16.90
2023-02-11T20:21:08.164Z,17.00
2023-02-11T20:23:42.881Z,17.20
2023-02-11T20:26:19.076Z,16.60
2023-02-11T20:29:02.941Z,15.80
2023-02-11T20:31:40.141Z,16.80
2023-02-11T20:34:14.210Z,17.80
2023-02-11T20:36:53.106Z,17.90
2023-02-11T20:39:32.485Z,17.00
2023-02-11T20:42:08.122Z,16.70
2023-02-11T20:44:47.606Z,17.00
2023-02-11T20:47:23.645Z,18.60
2023-02-11T20:49:59.177Z,17.70
2023-02-11T20:52:35.253Z,16.90
2023-02-11T20:55:10.669Z,18.20
2023-02-11T20:57:45.782Z,17.10
2023-02-11T21:00:20.383Z,17.70
2023-02-11T21:03:09.109Z,18.50
2023-02-11T21:05:44.845Z,15.70
2023-02-11T21:08:18.919Z,15.90
2023-02-11T21:10:53.699Z,16.20
2023-02-11T21:16:06.575Z,14.40
2023-02-11T21:18:46.214Z,14.10
2023-02-11T21:21:23.311Z,16.50
2023-02-11T21:23:59.103Z,16.70
2023-02-11T21:26:34.426Z,14.30
2023-02-11T21:29:09.256Z,16.00
2023-02-11T21:34:18.006Z,15.90
2023-02-11T21:36:51.776Z,17.40
2023-02-11T21:39:26.205Z,15.80
2023-02-11T21:42:01.465Z,15.50
2023-02-11T21:44:38.203Z,15.50
2023-02-11T21:47:11.952Z,16.80
2023-02-11T21:49:49.095Z,16.40
2023-02-11T21:52:22.792Z,15.70
2023-02-11T21:54:56.965Z,17.20
2023-02-11T21:57:29.761Z,17.30
2023-02-11T22:00:03.661Z,16.60
2023-02-11T22:02:37.397Z,14.10
2023-02-11T22:05:10.815Z,13.80
2023-02-11T22:07:44.070Z,13.10
2023-02-11T22:10:16.953Z,13.10
2023-02-11T22:12:49.094Z,12.20
2023-02-11T22:15:21.552Z,12.30
2023-02-11T22:17:53.300Z,12.30
2023-02-11T22:20:25.742Z,12.10
2023-02-11T22:22:57.572Z,13.30
2023-02-11T22:25:29.979Z,11.90
2023-02-11T22:28:01.861Z,11.40
2023-02-11T22:30:33.718Z,11.60
2023-02-11T22:33:06.007Z,10.80
2023-02-11T22:35:37.921Z,13.00
2023-02-11T22:38:09.613Z,12.20
2023-02-11T22:40:46.012Z,10.80
2023-02-11T22:43:17.749Z,12.10
2023-02-11T22:45:49.609Z,10.80
2023-02-11T22:48:23.124Z,8.70
2023-02-11T22:50:54.819Z,5.90
2023-02-11T22:53:26.698Z,4.80
2023-02-11T22:55:59.101Z,5.50
2023-02-11T22:58:30.787Z,5.10
2023-02-11T23:01:02.969Z,4.20
2023-02-11T23:03:35.294Z,4.10
2023-02-11T23:06:07.365Z,3.50
2023-02-11T23:08:39.572Z,3.60
2023-02-11T23:11:13.441Z,3.70
2023-02-11T23:13:46.690Z,3.10
2023-02-11T23:16:20.805Z,3.50
2023-02-11T23:18:53.219Z,3.00
2023-02-11T23:21:27.432Z,2.90
2023-02-11T23:24:00.783Z,2.70
2023-02-11T23:26:32.662Z,2.90
2023-02-11T23:29:04.370Z,2.90
2023-02-11T23:31:40.155Z,2.80
2023-02-11T23:34:12.097Z,3.30
2023-02-11T23:36:43.940Z,2.90
2023-02-11T23:39:17.787Z,2.70
2023-02-11T23:41:49.785Z,2.80
2023-02-11T23:44:21.406Z,2.60
2023-02-11T23:46:53.243Z,2.50
2023-02-11T23:49:25.028Z,2.30
2023-02-11T23:51:56.864Z,2.40
2023-02-11T23:54:28.565Z,2.40
2023-02-11T23:57:00.262Z,2.00
2023-02-11T23:59:31.907Z,2.50
